Etusivu
METAR-TAF:

METAR-TAF

Lentoasemat :

El Borma, Tunisia

Leveyspiiri: 31-41N, Pituuspiiri: 009-10E, korkeus merenpinnasta: 258 m

Tämänhetkinen sää

Tämä raportti tehtiin 23 minuuttia sitten, kello 17.00 UTC
tyyntä
Lämpötila 40°C
Kosteus 10%
Ilmanpaine 1008 hPa

METAR: DTTR 241700Z AUTO 00000KT NCD 40/03 Q1008

Aika: 18:23 (17:23 UTC)

Sääennuste

Tämä raportti tehtiin 2 tuntia ja 23 minuuttia sitten, kello 15.00 UTC
Ennuste voimassa 24. päivästä klo 16 UTC - 25. päivään klo 01 UTC
Tuuli 2 kn eri suunnista
Näkyvyys 10 km tai enemmän
ei pilviä alle 1500 m:ssä eikä cumulonimbus-pilviä
Tulossa
24. päivästä klo 16 UTC - 24. päivään klo 18 UTC
Tuuli 10 kn pohjoisesta
Tulossa
24. päivästä klo 19 UTC - 24. päivään klo 21 UTC
Tuuli 12 kn idästä/koillisesta

TAF: DTTR 241500Z 2416/2501 VRB02KT CAVOK BECMG 2416/2418 36010KT BECMG 2419/2421 06012KT

Säähavainnot ja -ennusteet yli 4000 lentoasemalta (METAR- ja TAF-raportit).

Käytössä olevat sääasemat on merkitty karttaan keltaisilla ja punaisilla pisteillä.

Aseta hiiri pisteen päälle nähdäksesi sääaseman nimen.

Klikkaa sitten nähdäksesi säähavainnot ja -ennusteet.

Kartan vaihtaminen: klikkaa mustalla rastilla varustettuja vihreitä pisteitä, niin voit zoomata sisään; viivalla varustettua vihreää pistettä, niin voit zoomata ulos tai vihreitä nuolia, niin pääset viereisille kartoille.


METAR-TAF: